SHU5627 UHSS-UHHH
Flight info
| Callsign | SHU5627 |
|---|---|
| Flight time | 1h 1m |
| Altitude | 36000 |
| Route | KENOM A969 MOGIS B150 NEBES |
| Aircraft | A319/M-SDE3FGHIRWY/LB1 |
Departure
| Time | 2026-05-07 18:25 |
|---|---|
| Airport | Yuzhno-Sakhalinsk International Airport (UHSS) |
Arrival
| Time | 2026-05-07 19:26 |
|---|---|
| Airport | Khabarovsk Novy Airport (UHHH) |
| Time | Latitude | Longitude | Altitude | Speed | Heading |
|---|---|---|---|---|---|
| 2026-05-07 18:06 | 46.88730 | 142.72215 | 77 ft | 0 kts | 92° |
| 2026-05-07 18:15 | 46.88730 | 142.72195 | 68 ft | 3 kts | 92° |
| 2026-05-07 18:15 | 46.88730 | 142.72163 | 70 ft | 3 kts | 90° |
| 2026-05-07 18:15 | 46.88732 | 142.72132 | 69 ft | 3 kts | 99° |
| 2026-05-07 18:15 | 46.88737 | 142.72102 | 73 ft | 3 kts | 107° |
| 2026-05-07 18:16 | 46.88738 | 142.72097 | 68 ft | 0 kts | 107° |
| 2026-05-07 18:19 | 46.88731 | 142.72107 | 69 ft | 3 kts | 143° |
| 2026-05-07 18:19 | 46.88714 | 142.72092 | 70 ft | 4 kts | 227° |
| 2026-05-07 18:19 | 46.88701 | 142.72038 | 74 ft | 6 kts | 264° |
| 2026-05-07 18:20 | 46.88698 | 142.71968 | 77 ft | 7 kts | 266° |
| 2026-05-07 18:20 | 46.88697 | 142.71889 | 77 ft | 8 kts | 269° |
| 2026-05-07 18:20 | 46.88696 | 142.71807 | 78 ft | 8 kts | 263° |
| 2026-05-07 18:20 | 46.88654 | 142.71749 | 74 ft | 11 kts | 195° |
| 2026-05-07 18:21 | 46.88546 | 142.71743 | 77 ft | 20 kts | 181° |
| 2026-05-07 18:21 | 46.88393 | 142.71739 | 83 ft | 22 kts | 181° |
| 2026-05-07 18:21 | 46.88241 | 142.71735 | 80 ft | 22 kts | 181° |
| 2026-05-07 18:21 | 46.88086 | 142.71731 | 83 ft | 22 kts | 181° |
| 2026-05-07 18:22 | 46.87930 | 142.71727 | 81 ft | 23 kts | 181° |
| 2026-05-07 18:22 | 46.87818 | 142.71725 | 72 ft | 24 kts | 181° |
| 2026-05-07 18:22 | 46.87593 | 142.71719 | 73 ft | 25 kts | 181° |
| 2026-05-07 18:22 | 46.87419 | 142.71714 | 68 ft | 25 kts | 181° |
| 2026-05-07 18:23 | 46.87253 | 142.71710 | 76 ft | 17 kts | 181° |
| 2026-05-07 18:23 | 46.87163 | 142.71708 | 81 ft | 11 kts | 181° |
| 2026-05-07 18:23 | 46.87090 | 142.71697 | 81 ft | 8 kts | 188° |
| 2026-05-07 18:23 | 46.87042 | 142.71689 | 83 ft | 2 kts | 175° |
| 2026-05-07 18:24 | 46.87037 | 142.71700 | 85 ft | 1 kts | 109° |
| 2026-05-07 18:24 | 46.87044 | 142.71710 | 81 ft | 2 kts | 36° |
| 2026-05-07 18:24 | 46.87062 | 142.71708 | 84 ft | 5 kts | 358° |
| 2026-05-07 18:24 | 46.87213 | 142.71712 | 82 ft | 56 kts | 1° |
| 2026-05-07 18:25 | 46.87853 | 142.71726 | 77 ft | 126 kts | 1° |
| 2026-05-07 18:25 | 46.88916 | 142.71751 | 153 ft | 171 kts | 1° |
| 2026-05-07 18:25 | 46.90093 | 142.71788 | 861 ft | 168 kts | 1° |
| 2026-05-07 18:25 | 46.91266 | 142.71732 | 1609 ft | 169 kts | 352° |
| 2026-05-07 18:26 | 46.92422 | 142.71361 | 2305 ft | 170 kts | 347° |
| 2026-05-07 18:26 | 46.93567 | 142.70977 | 3010 ft | 168 kts | 348° |
| 2026-05-07 18:26 | 46.94723 | 142.70599 | 3526 ft | 176 kts | 348° |
| 2026-05-07 18:26 | 46.95963 | 142.70186 | 3950 ft | 190 kts | 346° |
| 2026-05-07 18:27 | 46.97311 | 142.69710 | 4341 ft | 211 kts | 346° |
| 2026-05-07 18:27 | 46.98813 | 142.69182 | 4751 ft | 233 kts | 346° |
| 2026-05-07 18:27 | 47.00467 | 142.68642 | 5259 ft | 253 kts | 346° |
| 2026-05-07 18:27 | 47.01620 | 142.68245 | 5712 ft | 261 kts | 346° |
| 2026-05-07 18:28 | 47.04007 | 142.67404 | 6875 ft | 266 kts | 342° |
| 2026-05-07 18:28 | 47.05641 | 142.66137 | 7701 ft | 268 kts | 317° |
| 2026-05-07 18:28 | 47.06756 | 142.64019 | 8614 ft | 268 kts | 295° |
| 2026-05-07 18:28 | 47.07205 | 142.61369 | 9498 ft | 271 kts | 274° |
| 2026-05-07 18:29 | 47.07382 | 142.58597 | 10267 ft | 278 kts | 278° |
| 2026-05-07 18:29 | 47.07773 | 142.55694 | 10565 ft | 301 kts | 283° |
| 2026-05-07 18:29 | 47.08288 | 142.52596 | 10791 ft | 324 kts | 284° |
| 2026-05-07 18:29 | 47.08851 | 142.49297 | 11170 ft | 339 kts | 283° |
| 2026-05-07 18:30 | 47.09407 | 142.45903 | 11868 ft | 344 kts | 282° |
| 2026-05-07 18:30 | 47.09936 | 142.42472 | 12654 ft | 346 kts | 282° |
| 2026-05-07 18:30 | 47.10439 | 142.39004 | 13404 ft | 349 kts | 281° |
| 2026-05-07 18:30 | 47.10932 | 142.35506 | 14104 ft | 351 kts | 280° |
| 2026-05-07 18:31 | 47.11424 | 142.31979 | 14788 ft | 354 kts | 280° |
| 2026-05-07 18:31 | 47.11918 | 142.28427 | 15465 ft | 356 kts | 279° |
| 2026-05-07 18:31 | 47.12405 | 142.24908 | 16127 ft | 358 kts | 279° |
| 2026-05-07 18:31 | 47.12899 | 142.21316 | 16807 ft | 360 kts | 279° |
| 2026-05-07 18:32 | 47.13394 | 142.17708 | 17484 ft | 362 kts | 279° |
| 2026-05-07 18:32 | 47.13894 | 142.14056 | 18053 ft | 367 kts | 279° |
| 2026-05-07 18:32 | 47.14400 | 142.10362 | 18600 ft | 370 kts | 279° |
| 2026-05-07 18:32 | 47.14909 | 142.06656 | 19177 ft | 371 kts | 278° |
| 2026-05-07 18:33 | 47.15421 | 142.02944 | 19783 ft | 371 kts | 278° |
| 2026-05-07 18:33 | 47.15767 | 142.00436 | 20179 ft | 370 kts | 278° |
| 2026-05-07 18:33 | 47.16279 | 141.96726 | 20761 ft | 370 kts | 277° |
| 2026-05-07 18:33 | 47.16778 | 141.93056 | 21322 ft | 370 kts | 276° |
| 2026-05-07 18:34 | 47.17277 | 141.89344 | 21878 ft | 370 kts | 276° |
| 2026-05-07 18:34 | 47.17777 | 141.85629 | 22417 ft | 370 kts | 276° |
| 2026-05-07 18:34 | 47.18278 | 141.81905 | 22940 ft | 371 kts | 275° |
| 2026-05-07 18:34 | 47.18778 | 141.78191 | 23460 ft | 371 kts | 275° |
| 2026-05-07 18:35 | 47.19277 | 141.74464 | 23854 ft | 372 kts | 274° |
| 2026-05-07 18:35 | 47.19776 | 141.70735 | 24249 ft | 372 kts | 274° |
| 2026-05-07 18:35 | 47.20276 | 141.66991 | 24652 ft | 372 kts | 274° |
| 2026-05-07 18:35 | 47.20777 | 141.63258 | 25052 ft | 373 kts | 274° |
| 2026-05-07 18:36 | 47.21280 | 141.59507 | 25439 ft | 373 kts | 273° |
| 2026-05-07 18:36 | 47.21781 | 141.55762 | 25812 ft | 374 kts | 273° |
| 2026-05-07 18:36 | 47.22281 | 141.52005 | 26178 ft | 374 kts | 273° |
| 2026-05-07 18:36 | 47.22777 | 141.48247 | 26540 ft | 374 kts | 272° |
| 2026-05-07 18:37 | 47.23270 | 141.44484 | 26892 ft | 375 kts | 272° |
| 2026-05-07 18:37 | 47.23763 | 141.40714 | 27237 ft | 375 kts | 272° |
| 2026-05-07 18:37 | 47.24247 | 141.36992 | 27572 ft | 376 kts | 272° |
| 2026-05-07 18:37 | 47.24736 | 141.33209 | 27901 ft | 376 kts | 271° |
| 2026-05-07 18:38 | 47.25223 | 141.29433 | 28310 ft | 375 kts | 271° |
| 2026-05-07 18:38 | 47.25713 | 141.25684 | 28814 ft | 371 kts | 271° |
| 2026-05-07 18:38 | 47.26201 | 141.21973 | 29336 ft | 368 kts | 271° |
| 2026-05-07 18:38 | 47.26683 | 141.18293 | 29920 ft | 364 kts | 270° |
| 2026-05-07 18:39 | 47.27161 | 141.14642 | 30324 ft | 362 kts | 270° |
| 2026-05-07 18:39 | 47.27631 | 141.11015 | 30676 ft | 361 kts | 270° |
| 2026-05-07 18:39 | 47.28095 | 141.07392 | 31006 ft | 360 kts | 270° |
| 2026-05-07 18:39 | 47.28553 | 141.03771 | 31330 ft | 359 kts | 270° |
| 2026-05-07 18:40 | 47.29010 | 141.00155 | 31670 ft | 359 kts | 270° |
| 2026-05-07 18:40 | 47.29465 | 140.96547 | 32015 ft | 358 kts | 270° |
| 2026-05-07 18:40 | 47.29924 | 140.92944 | 32336 ft | 358 kts | 270° |
| 2026-05-07 18:40 | 47.30380 | 140.89347 | 32670 ft | 357 kts | 270° |
| 2026-05-07 18:41 | 47.30835 | 140.85751 | 33002 ft | 356 kts | 270° |
| 2026-05-07 18:41 | 47.31286 | 140.82164 | 33336 ft | 356 kts | 270° |
| 2026-05-07 18:41 | 47.31734 | 140.78581 | 33672 ft | 355 kts | 270° |
| 2026-05-07 18:41 | 47.32182 | 140.75006 | 33981 ft | 355 kts | 270° |
| 2026-05-07 18:42 | 47.32628 | 140.71427 | 34220 ft | 355 kts | 271° |
| 2026-05-07 18:42 | 47.33073 | 140.67835 | 34442 ft | 358 kts | 271° |
| 2026-05-07 18:42 | 47.33517 | 140.64203 | 34556 ft | 361 kts | 271° |
| 2026-05-07 18:42 | 47.33959 | 140.60546 | 34666 ft | 365 kts | 272° |
| 2026-05-07 18:43 | 47.34411 | 140.56852 | 34822 ft | 367 kts | 272° |
| 2026-05-07 18:43 | 47.34872 | 140.53141 | 35009 ft | 369 kts | 272° |
| 2026-05-07 18:43 | 47.35334 | 140.49416 | 35197 ft | 370 kts | 272° |
| 2026-05-07 18:43 | 47.35796 | 140.45679 | 35382 ft | 371 kts | 272° |
| 2026-05-07 18:44 | 47.36313 | 140.41985 | 35557 ft | 377 kts | 278° |
| 2026-05-07 18:44 | 47.37340 | 140.38354 | 35730 ft | 391 kts | 288° |
| 2026-05-07 18:44 | 47.38647 | 140.34811 | 35853 ft | 394 kts | 288° |
| 2026-05-07 18:45 | 47.41274 | 140.27658 | 35883 ft | 397 kts | 288° |
| 2026-05-07 18:45 | 47.43902 | 140.20455 | 35885 ft | 400 kts | 289° |
| 2026-05-07 18:46 | 47.46539 | 140.13182 | 35883 ft | 401 kts | 289° |
| 2026-05-07 18:46 | 47.49188 | 140.05911 | 35884 ft | 402 kts | 289° |
| 2026-05-07 18:47 | 47.51835 | 139.98630 | 35886 ft | 402 kts | 289° |
| 2026-05-07 18:47 | 47.54475 | 139.91337 | 35933 ft | 402 kts | 289° |
| 2026-05-07 18:48 | 47.57080 | 139.84068 | 35907 ft | 403 kts | 289° |
| 2026-05-07 18:48 | 47.59711 | 139.76738 | 35895 ft | 403 kts | 289° |
| 2026-05-07 18:49 | 47.62346 | 139.69390 | 35893 ft | 404 kts | 289° |
| 2026-05-07 18:49 | 47.64975 | 139.62028 | 35891 ft | 404 kts | 289° |
| 2026-05-07 18:50 | 47.67602 | 139.54655 | 35916 ft | 404 kts | 290° |
| 2026-05-07 18:50 | 47.70232 | 139.47262 | 35898 ft | 405 kts | 290° |
| 2026-05-07 18:51 | 47.72861 | 139.39848 | 35894 ft | 406 kts | 290° |
| 2026-05-07 18:51 | 47.75482 | 139.32411 | 35886 ft | 406 kts | 289° |
| 2026-05-07 18:52 | 47.78048 | 139.24994 | 35903 ft | 405 kts | 288° |
| 2026-05-07 18:52 | 47.80499 | 139.17455 | 35937 ft | 405 kts | 288° |
| 2026-05-07 18:53 | 47.82909 | 139.09865 | 35921 ft | 406 kts | 288° |
| 2026-05-07 18:53 | 47.85355 | 139.02247 | 35913 ft | 408 kts | 289° |
| 2026-05-07 18:54 | 47.87835 | 138.94627 | 35910 ft | 409 kts | 289° |
| 2026-05-07 18:54 | 47.90305 | 138.86993 | 35909 ft | 409 kts | 288° |
| 2026-05-07 18:55 | 47.92751 | 138.79380 | 35935 ft | 410 kts | 289° |
| 2026-05-07 18:55 | 47.95210 | 138.71683 | 35916 ft | 412 kts | 289° |
| 2026-05-07 18:56 | 47.97670 | 138.63948 | 35916 ft | 413 kts | 289° |
| 2026-05-07 18:56 | 47.99347 | 138.58688 | 35922 ft | 414 kts | 289° |
| 2026-05-07 18:57 | 48.00156 | 138.56150 | 35925 ft | 414 kts | 289° |
| 2026-05-07 18:57 | 48.02631 | 138.48360 | 35929 ft | 414 kts | 289° |
| 2026-05-07 18:58 | 48.05093 | 138.40563 | 35945 ft | 416 kts | 289° |
| 2026-05-07 18:58 | 48.07251 | 138.32606 | 35932 ft | 409 kts | 278° |
| 2026-05-07 18:59 | 48.08552 | 138.24325 | 35930 ft | 409 kts | 278° |
| 2026-05-07 18:59 | 48.09860 | 138.16030 | 35934 ft | 410 kts | 278° |
| 2026-05-07 19:00 | 48.11164 | 138.07767 | 35931 ft | 410 kts | 278° |
| 2026-05-07 19:00 | 48.12477 | 137.99434 | 35791 ft | 413 kts | 279° |
| 2026-05-07 19:00 | 48.13136 | 137.95249 | 35442 ft | 414 kts | 278° |
| 2026-05-07 19:01 | 48.13792 | 137.91066 | 35016 ft | 413 kts | 278° |
| 2026-05-07 19:01 | 48.14442 | 137.86888 | 34595 ft | 412 kts | 278° |
| 2026-05-07 19:01 | 48.15087 | 137.82712 | 34188 ft | 411 kts | 278° |
| 2026-05-07 19:01 | 48.15731 | 137.78541 | 33749 ft | 411 kts | 278° |
| 2026-05-07 19:02 | 48.16375 | 137.74370 | 33262 ft | 411 kts | 278° |
| 2026-05-07 19:02 | 48.17018 | 137.70207 | 32789 ft | 410 kts | 278° |
| 2026-05-07 19:02 | 48.17660 | 137.66055 | 32311 ft | 407 kts | 278° |
| 2026-05-07 19:02 | 48.18295 | 137.61937 | 31846 ft | 403 kts | 278° |
| 2026-05-07 19:03 | 48.18921 | 137.57863 | 31392 ft | 399 kts | 278° |
| 2026-05-07 19:03 | 48.19540 | 137.53817 | 30945 ft | 396 kts | 278° |
| 2026-05-07 19:03 | 48.20150 | 137.49811 | 30506 ft | 392 kts | 278° |
| 2026-05-07 19:03 | 48.20749 | 137.45843 | 30072 ft | 389 kts | 278° |
| 2026-05-07 19:04 | 48.21338 | 137.41908 | 29572 ft | 385 kts | 278° |
| 2026-05-07 19:04 | 48.21927 | 137.38002 | 29049 ft | 382 kts | 279° |
| 2026-05-07 19:04 | 48.22504 | 137.34181 | 28549 ft | 379 kts | 279° |
| 2026-05-07 19:04 | 48.23082 | 137.30343 | 28043 ft | 376 kts | 279° |
| 2026-05-07 19:05 | 48.23652 | 137.26527 | 27552 ft | 373 kts | 279° |
| 2026-05-07 19:05 | 48.24215 | 137.22740 | 27063 ft | 370 kts | 279° |
| 2026-05-07 19:05 | 48.24774 | 137.18976 | 26594 ft | 368 kts | 279° |
| 2026-05-07 19:05 | 48.25331 | 137.15255 | 26118 ft | 364 kts | 279° |
| 2026-05-07 19:06 | 48.25885 | 137.11565 | 25644 ft | 361 kts | 279° |
| 2026-05-07 19:06 | 48.26975 | 137.04245 | 24712 ft | 360 kts | 280° |
| 2026-05-07 19:06 | 48.27519 | 137.00583 | 24254 ft | 359 kts | 281° |
| 2026-05-07 19:07 | 48.28059 | 136.96936 | 23805 ft | 358 kts | 281° |
| 2026-05-07 19:07 | 48.28595 | 136.93297 | 23319 ft | 356 kts | 281° |
| 2026-05-07 19:07 | 48.29126 | 136.89681 | 22778 ft | 354 kts | 281° |
| 2026-05-07 19:07 | 48.29654 | 136.86077 | 22241 ft | 352 kts | 281° |
| 2026-05-07 19:08 | 48.30178 | 136.82489 | 21719 ft | 351 kts | 281° |
| 2026-05-07 19:08 | 48.30759 | 136.78930 | 21146 ft | 351 kts | 286° |
| 2026-05-07 19:08 | 48.31724 | 136.75555 | 20591 ft | 354 kts | 296° |
| 2026-05-07 19:08 | 48.32972 | 136.72370 | 20034 ft | 353 kts | 298° |
| 2026-05-07 19:09 | 48.34222 | 136.69193 | 19502 ft | 353 kts | 298° |
| 2026-05-07 19:09 | 48.35465 | 136.66018 | 18971 ft | 352 kts | 298° |
| 2026-05-07 19:09 | 48.36701 | 136.62844 | 18467 ft | 352 kts | 299° |
| 2026-05-07 19:09 | 48.37934 | 136.59666 | 17913 ft | 351 kts | 299° |
| 2026-05-07 19:10 | 48.39163 | 136.56498 | 17313 ft | 350 kts | 299° |
| 2026-05-07 19:10 | 48.40374 | 136.53379 | 16736 ft | 349 kts | 299° |
| 2026-05-07 19:10 | 48.41595 | 136.50232 | 16172 ft | 348 kts | 299° |
| 2026-05-07 19:10 | 48.42812 | 136.47093 | 15619 ft | 347 kts | 299° |
| 2026-05-07 19:11 | 48.44022 | 136.43960 | 15066 ft | 345 kts | 299° |
| 2026-05-07 19:11 | 48.45225 | 136.40838 | 14536 ft | 344 kts | 299° |
| 2026-05-07 19:11 | 48.46423 | 136.37731 | 14006 ft | 342 kts | 299° |
| 2026-05-07 19:11 | 48.47615 | 136.34634 | 13464 ft | 341 kts | 299° |
| 2026-05-07 19:12 | 48.48794 | 136.31568 | 12877 ft | 335 kts | 299° |
| 2026-05-07 19:12 | 48.49954 | 136.28555 | 12354 ft | 327 kts | 299° |
| 2026-05-07 19:12 | 48.51078 | 136.25627 | 11902 ft | 318 kts | 299° |
| 2026-05-07 19:12 | 48.52175 | 136.22769 | 11457 ft | 312 kts | 299° |
| 2026-05-07 19:13 | 48.53261 | 136.19940 | 11009 ft | 309 kts | 299° |
| 2026-05-07 19:13 | 48.54324 | 136.17168 | 10576 ft | 302 kts | 299° |
| 2026-05-07 19:13 | 48.55361 | 136.14455 | 10151 ft | 295 kts | 299° |
| 2026-05-07 19:13 | 48.56372 | 136.11813 | 9887 ft | 284 kts | 299° |
| 2026-05-07 19:14 | 48.57335 | 136.09293 | 9870 ft | 274 kts | 299° |
| 2026-05-07 19:14 | 48.58282 | 136.06809 | 9870 ft | 272 kts | 299° |
| 2026-05-07 19:14 | 48.59228 | 136.04328 | 9873 ft | 272 kts | 299° |
| 2026-05-07 19:14 | 48.60170 | 136.01851 | 9870 ft | 272 kts | 299° |
| 2026-05-07 19:15 | 48.61112 | 135.99372 | 9872 ft | 272 kts | 299° |
| 2026-05-07 19:15 | 48.62052 | 135.96891 | 9866 ft | 272 kts | 299° |
| 2026-05-07 19:15 | 48.62987 | 135.94408 | 9866 ft | 272 kts | 297° |
| 2026-05-07 19:15 | 48.63821 | 135.91878 | 9818 ft | 272 kts | 295° |
| 2026-05-07 19:16 | 48.64621 | 135.89286 | 9702 ft | 272 kts | 294° |
| 2026-05-07 19:16 | 48.65402 | 135.86690 | 9415 ft | 271 kts | 294° |
| 2026-05-07 19:16 | 48.66176 | 135.84100 | 9153 ft | 270 kts | 294° |
| 2026-05-07 19:16 | 48.66949 | 135.81519 | 8883 ft | 269 kts | 294° |
| 2026-05-07 19:17 | 48.67722 | 135.78940 | 8614 ft | 268 kts | 294° |
| 2026-05-07 19:17 | 48.68495 | 135.76369 | 8339 ft | 268 kts | 294° |
| 2026-05-07 19:17 | 48.69262 | 135.73810 | 8075 ft | 265 kts | 294° |
| 2026-05-07 19:17 | 48.70015 | 135.71300 | 7804 ft | 258 kts | 294° |
| 2026-05-07 19:18 | 48.70747 | 135.68861 | 7586 ft | 250 kts | 294° |
| 2026-05-07 19:18 | 48.71457 | 135.66503 | 7413 ft | 242 kts | 294° |
| 2026-05-07 19:18 | 48.72142 | 135.64221 | 7231 ft | 235 kts | 293° |
| 2026-05-07 19:18 | 48.72805 | 135.62007 | 7055 ft | 227 kts | 294° |
| 2026-05-07 19:19 | 48.73450 | 135.59854 | 6883 ft | 223 kts | 293° |
| 2026-05-07 19:19 | 48.74089 | 135.57724 | 6720 ft | 221 kts | 294° |
| 2026-05-07 19:19 | 48.74718 | 135.55616 | 6544 ft | 218 kts | 294° |
| 2026-05-07 19:19 | 48.75295 | 135.53506 | 6286 ft | 217 kts | 284° |
| 2026-05-07 19:20 | 48.75341 | 135.51251 | 6022 ft | 215 kts | 259° |
| 2026-05-07 19:20 | 48.74746 | 135.49218 | 5850 ft | 210 kts | 235° |
| 2026-05-07 19:20 | 48.73772 | 135.47541 | 5417 ft | 217 kts | 229° |
| 2026-05-07 19:20 | 48.72691 | 135.45891 | 4893 ft | 229 kts | 225° |
| 2026-05-07 19:21 | 48.71513 | 135.44236 | 4500 ft | 232 kts | 223° |
| 2026-05-07 19:21 | 48.70324 | 135.42597 | 4211 ft | 230 kts | 223° |
| 2026-05-07 19:21 | 48.69143 | 135.40972 | 3920 ft | 229 kts | 223° |
| 2026-05-07 19:21 | 48.67968 | 135.39353 | 3638 ft | 227 kts | 223° |
| 2026-05-07 19:22 | 48.67184 | 135.38274 | 3449 ft | 224 kts | 223° |
| 2026-05-07 19:22 | 48.65694 | 135.36227 | 3105 ft | 214 kts | 223° |
| 2026-05-07 19:22 | 48.64956 | 135.35211 | 2922 ft | 211 kts | 222° |
| 2026-05-07 19:22 | 48.63898 | 135.33760 | 2670 ft | 205 kts | 222° |
| 2026-05-07 19:23 | 48.62841 | 135.32308 | 2432 ft | 199 kts | 222° |
| 2026-05-07 19:23 | 48.61843 | 135.30937 | 2180 ft | 194 kts | 221° |
| 2026-05-07 19:23 | 48.60870 | 135.29601 | 1936 ft | 184 kts | 221° |
| 2026-05-07 19:23 | 48.59967 | 135.28365 | 1728 ft | 164 kts | 222° |
| 2026-05-07 19:24 | 48.59123 | 135.27226 | 1521 ft | 171 kts | 220° |
| 2026-05-07 19:24 | 48.58256 | 135.26123 | 1438 ft | 155 kts | 220° |
| 2026-05-07 19:24 | 48.57486 | 135.25066 | 1182 ft | 144 kts | 221° |
| 2026-05-07 19:24 | 48.56762 | 135.24063 | 943 ft | 141 kts | 221° |
| 2026-05-07 19:25 | 48.56043 | 135.23092 | 752 ft | 134 kts | 224° |
| 2026-05-07 19:25 | 48.55381 | 135.22134 | 589 ft | 133 kts | 224° |
| 2026-05-07 19:25 | 48.54695 | 135.21169 | 451 ft | 137 kts | 223° |
| 2026-05-07 19:25 | 48.53985 | 135.20182 | 290 ft | 140 kts | 223° |
| 2026-05-07 19:26 | 48.53311 | 135.19247 | 252 ft | 117 kts | 231° |
| 2026-05-07 19:26 | 48.52816 | 135.18575 | 247 ft | 78 kts | 221° |
| 2026-05-07 19:26 | 48.52492 | 135.18135 | 240 ft | 43 kts | 220° |
| 2026-05-07 19:26 | 48.52333 | 135.17924 | 244 ft | 14 kts | 221° |
| 2026-05-07 19:27 | 48.52282 | 135.17819 | 247 ft | 12 kts | 272° |
| 2026-05-07 19:27 | 48.52317 | 135.17739 | 246 ft | 8 kts | 314° |
| 2026-05-07 19:27 | 48.52359 | 135.17673 | 246 ft | 9 kts | 314° |
| 2026-05-07 19:27 | 48.52406 | 135.17592 | 246 ft | 11 kts | 311° |
| 2026-05-07 19:28 | 48.52461 | 135.17499 | 245 ft | 13 kts | 313° |
| 2026-05-07 19:28 | 48.52482 | 135.17463 | 245 ft | 2 kts | 313° |
| 2026-05-07 19:28 | 48.52493 | 135.17446 | 245 ft | 3 kts | 313° |
| 2026-05-07 19:28 | 48.52509 | 135.17414 | 245 ft | 4 kts | 298° |
| 2026-05-07 19:29 | 48.52512 | 135.17366 | 245 ft | 5 kts | 263° |
| 2026-05-07 19:29 | 48.52524 | 135.17314 | 245 ft | 6 kts | 316° |
| 2026-05-07 19:29 | 48.52553 | 135.17270 | 245 ft | 3 kts | 313° |
| 2026-05-07 19:29 | 48.52563 | 135.17254 | 245 ft | 0 kts | 312° |